Time;durP1;ratioP1;P1;durP2;ratioP2;P2;SDS_P1;SDS_P2;PMS_P1;PMS_P2;Temp;Humidity;BMP_temperature;BMP_pressure;BME280_temperature;BME280_humidity;BME280_pressure;Samples;Min_cycle;Max_cycle;Signal;HPM_P1;HPM_P2
2023/01/20 00:01:20;;;;;;;52.25;15.60;;;;;;;;;;5038567;28;20610;-75
2023/01/20 00:03:46;;;;;;;50.22;14.63;;;;;;;;;;5038718;28;20021;-76
2023/01/20 00:06:13;;;;;;;51.00;16.80;;;;;;;;;;5037270;28;20078;-76
2023/01/20 00:08:39;;;;;;;53.70;15.77;;;;;;;;;;5040634;28;20116;-76
2023/01/20 00:11:06;;;;;;;52.30;15.93;;;;;;;;;;5036376;28;20881;-76
2023/01/20 00:13:33;;;;;;;36.97;14.07;;;;;;;;;;5039834;28;20033;-75
2023/01/20 00:16:01;;;;;;;58.50;15.63;;;;;;;;;;5035194;28;20474;-76
2023/01/20 00:18:28;;;;;;;57.83;16.30;;;;;;;;;;5029941;28;20033;-76
2023/01/20 00:20:54;;;;;;;47.05;15.35;;;;;;;;;;5033169;28;20056;-76
2023/01/20 00:23:20;;;;;;;54.90;16.55;;;;;;;;;;5039040;28;20616;-76
2023/01/20 00:25:46;;;;;;;44.38;16.35;;;;;;;;;;5032638;28;20437;-76
2023/01/20 00:28:12;;;;;;;63.28;19.60;;;;;;;;;;5041145;28;20048;-76
2023/01/20 00:30:38;;;;;;;39.08;14.50;;;;;;;;;;5032722;28;20112;-76
2023/01/20 00:33:04;;;;;;;37.35;15.45;;;;;;;;;;5031965;28;20040;-76
2023/01/20 00:35:31;;;;;;;40.45;15.95;;;;;;;;;;5036799;28;20025;-76
2023/01/20 00:37:57;;;;;;;38.15;14.57;;;;;;;;;;5037595;28;20064;-76
2023/01/20 00:40:23;;;;;;;43.40;14.98;;;;;;;;;;5035820;28;20034;-76
2023/01/20 00:42:49;;;;;;;28.35;14.35;;;;;;;;;;5037489;28;20032;-76
2023/01/20 00:45:15;;;;;;;32.35;14.45;;;;;;;;;;5036470;28;20074;-76
2023/01/20 00:47:41;;;;;;;50.05;14.80;;;;;;;;;;5037592;28;20804;-76
2023/01/20 00:50:07;;;;;;;39.88;15.75;;;;;;;;;;5038573;28;20029;-77
2023/01/20 00:52:33;;;;;;;28.67;14.23;;;;;;;;;;5034533;28;20029;-76
2023/01/20 00:55:00;;;;;;;29.83;14.13;;;;;;;;;;5044556;28;20106;-76
2023/01/20 00:57:26;;;;;;;25.67;14.98;;;;;;;;;;5027646;28;20671;-75
2023/01/20 00:59:52;;;;;;;28.95;14.35;;;;;;;;;;5035927;28;20052;-76
2023/01/20 01:02:18;;;;;;;25.15;14.25;;;;;;;;;;5038465;28;20021;-76
2023/01/20 01:04:44;;;;;;;27.55;15.82;;;;;;;;;;5040925;28;20025;-76
2023/01/20 01:07:10;;;;;;;24.65;13.85;;;;;;;;;;5032757;28;20032;-76
2023/01/20 01:09:36;;;;;;;22.25;13.15;;;;;;;;;;5040459;28;20029;-76
2023/01/20 01:12:02;;;;;;;26.65;13.80;;;;;;;;;;5046475;28;20112;-76
2023/01/20 01:14:30;;;;;;;22.52;12.80;;;;;;;;;;5033057;28;20104;-76
2023/01/20 01:16:56;;;;;;;21.67;11.60;;;;;;;;;;5057419;28;20025;-76
2023/01/20 01:19:23;;;;;;;18.33;11.98;;;;;;;;;;5043758;28;20073;-76
2023/01/20 01:21:49;;;;;;;22.73;12.65;;;;;;;;;;5040391;28;20035;-76
2023/01/20 01:24:15;;;;;;;21.45;11.98;;;;;;;;;;5034388;28;20541;-76
2023/01/20 01:26:41;;;;;;;19.83;11.00;;;;;;;;;;5029984;28;20037;-76
2023/01/20 01:29:07;;;;;;;17.65;11.10;;;;;;;;;;5032756;28;20108;-76
2023/01/20 01:31:33;;;;;;;17.27;11.38;;;;;;;;;;5039676;28;20033;-76
2023/01/20 01:34:00;;;;;;;20.98;11.80;;;;;;;;;;5037223;28;20029;-76
2023/01/20 01:36:26;;;;;;;29.83;12.10;;;;;;;;;;5035026;28;20040;-76
2023/01/20 01:38:52;;;;;;;19.40;12.27;;;;;;;;;;5040633;28;20033;-76
2023/01/20 01:41:18;;;;;;;20.77;11.57;;;;;;;;;;5033891;28;20036;-76
2023/01/20 01:44:03;;;;;;;21.90;12.45;;;;;;;;;;5036354;28;20017;-76
2023/01/20 01:46:29;;;;;;;22.55;12.13;;;;;;;;;;5042007;28;20648;-76
2023/01/20 01:48:56;;;;;;;19.70;11.68;;;;;;;;;;5037297;28;20036;-76
2023/01/20 01:51:24;;;;;;;18.33;11.65;;;;;;;;;;5037585;28;20364;-76
2023/01/20 01:53:54;;;;;;;17.45;11.32;;;;;;;;;;5033264;28;20033;-76
2023/01/20 01:56:21;;;;;;;16.08;9.25;;;;;;;;;;5039563;28;20235;-76
2023/01/20 01:58:49;;;;;;;18.17;10.55;;;;;;;;;;5039240;28;20037;-76
2023/01/20 02:01:15;;;;;;;18.17;10.55;;;;;;;;;;5031201;28;20151;-76
2023/01/20 02:03:46;;;;;;;18.55;10.02;;;;;;;;;;5037082;28;20029;-76
2023/01/20 02:06:12;;;;;;;16.20;10.13;;;;;;;;;;5034125;28;20060;-76
2023/01/20 02:08:38;;;;;;;18.38;10.80;;;;;;;;;;5033766;28;20029;-76
2023/01/20 02:11:05;;;;;;;15.55;9.48;;;;;;;;;;5034915;28;20044;-76
2023/01/20 02:13:31;;;;;;;18.40;10.30;;;;;;;;;;5038807;28;20041;-76
2023/01/20 02:16:09;;;;;;;16.17;9.23;;;;;;;;;;5046357;28;20027;-76
2023/01/20 02:18:44;;;;;;;15.02;8.88;;;;;;;;;;5029137;28;20037;-76
2023/01/20 02:21:10;;;;;;;17.27;9.80;;;;;;;;;;5041636;28;20029;-76
2023/01/20 02:23:54;;;;;;;15.88;8.32;;;;;;;;;;5037054;28;20022;-76
2023/01/20 02:26:23;;;;;;;13.70;8.60;;;;;;;;;;5036200;28;20033;-76
2023/01/20 02:29:02;;;;;;;15.93;9.48;;;;;;;;;;5040763;28;20032;-76
2023/01/20 02:31:43;;;;;;;14.98;8.70;;;;;;;;;;5052574;28;20051;-75
2023/01/20 02:34:48;;;;;;;15.38;7.82;;;;;;;;;;5035125;28;20030;-76
2023/01/20 02:37:19;;;;;;;15.93;8.38;;;;;;;;;;5012491;28;20040;-76
2023/01/20 02:39:54;;;;;;;13.32;8.23;;;;;;;;;;5011848;28;20060;-76
2023/01/20 02:42:20;;;;;;;;;;;;;;;;;;5033742;28;20180;-76
2023/01/20 02:44:51;;;;;;;13.55;8.43;;;;;;;;;;5045534;28;20383;-76
2023/01/20 02:47:26;;;;;;;15.23;7.60;;;;;;;;;;5059102;28;20057;-76
2023/01/20 02:49:55;;;;;;;15.38;8.52;;;;;;;;;;5036743;28;20029;-76
2023/01/20 02:52:47;;;;;;;17.08;9.10;;;;;;;;;;5033040;28;20033;-76
2023/01/20 02:55:17;;;;;;;15.10;8.98;;;;;;;;;;5032402;28;20048;-76
2023/01/20 02:57:46;;;;;;;18.10;9.13;;;;;;;;;;5031732;28;20045;-76
2023/01/20 03:00:15;;;;;;;16.75;8.60;;;;;;;;;;5028073;28;20211;-76
2023/01/20 03:02:42;;;;;;;13.45;8.70;;;;;;;;;;5033184;28;20428;-76
2023/01/20 03:05:16;;;;;;;16.00;9.65;;;;;;;;;;5034730;28;20075;-76
2023/01/20 03:07:44;;;;;;;14.77;8.70;;;;;;;;;;5028974;28;20106;-76
2023/01/20 03:10:13;;;;;;;13.82;7.93;;;;;;;;;;5035823;28;20087;-76
2023/01/20 03:12:45;;;;;;;13.48;8.98;;;;;;;;;;5035275;28;20039;-76
2023/01/20 03:15:12;;;;;;;11.35;7.18;;;;;;;;;;5030976;28;20454;-76
2023/01/20 03:17:38;;;;;;;15.27;9.68;;;;;;;;;;5035727;28;20111;-76
2023/01/20 03:20:05;;;;;;;14.25;8.27;;;;;;;;;;5044876;28;20118;-76
2023/01/20 03:22:32;;;;;;;12.50;7.68;;;;;;;;;;5030387;28;20033;-75
2023/01/20 03:24:58;;;;;;;15.82;9.00;;;;;;;;;;5037962;28;20031;-76
2023/01/20 03:27:25;;;;;;;14.75;8.27;;;;;;;;;;5038138;28;20550;-76
2023/01/20 03:29:51;;;;;;;11.27;7.43;;;;;;;;;;5032582;28;20112;-76
2023/01/20 03:32:21;;;;;;;14.45;7.25;;;;;;;;;;5028043;28;20029;-76
2023/01/20 03:34:47;;;;;;;11.75;7.22;;;;;;;;;;5042064;28;20049;-76
2023/01/20 03:37:14;;;;;;;13.07;6.78;;;;;;;;;;5041044;28;20037;-76
2023/01/20 03:39:40;;;;;;;10.43;6.70;;;;;;;;;;5044260;28;20036;-76
2023/01/20 03:42:07;;;;;;;13.30;6.78;;;;;;;;;;5039223;28;20068;-76
2023/01/20 03:44:33;;;;;;;11.65;7.40;;;;;;;;;;5040798;28;20025;-76
2023/01/20 03:47:25;;;;;;;8.85;6.60;;;;;;;;;;5033381;28;20033;-76
2023/01/20 03:49:55;;;;;;;7.75;6.20;;;;;;;;;;5037982;28;20442;-76
2023/01/20 03:52:24;;;;;;;8.35;5.90;;;;;;;;;;5039992;28;20386;-76
2023/01/20 03:54:57;;;;;;;9.43;6.55;;;;;;;;;;5044630;28;20018;-76
2023/01/20 03:57:26;;;;;;;15.65;6.43;;;;;;;;;;5033602;28;20045;-76
2023/01/20 03:59:52;;;;;;;10.55;6.53;;;;;;;;;;5037284;28;20063;-76
2023/01/20 04:02:19;;;;;;;10.35;6.18;;;;;;;;;;5039107;28;20040;-76
2023/01/20 04:04:46;;;;;;;8.82;5.50;;;;;;;;;;5039868;28;20032;-76
2023/01/20 04:07:14;;;;;;;10.10;5.70;;;;;;;;;;5040804;28;20060;-76
2023/01/20 04:09:44;;;;;;;8.15;5.32;;;;;;;;;;5034794;28;20610;-76
2023/01/20 04:12:10;;;;;;;11.27;5.82;;;;;;;;;;5038299;28;20101;-76
2023/01/20 04:14:36;;;;;;;7.88;5.95;;;;;;;;;;5041463;28;20029;-76
2023/01/20 04:17:03;;;;;;;11.90;6.40;;;;;;;;;;5036330;28;20021;-76
2023/01/20 04:19:30;;;;;;;8.85;5.50;;;;;;;;;;5042520;28;20188;-76
2023/01/20 04:22:11;;;;;;;9.77;6.03;;;;;;;;;;5048868;28;20028;-76
2023/01/20 04:24:40;;;;;;;9.05;5.97;;;;;;;;;;5034687;28;20025;-76
2023/01/20 04:27:06;;;;;;;9.20;6.22;;;;;;;;;;5038043;28;20041;-76
2023/01/20 04:29:32;;;;;;;11.75;5.30;;;;;;;;;;5034023;28;20033;-76
2023/01/20 04:31:59;;;;;;;7.80;5.28;;;;;;;;;;5030431;28;20060;-76
2023/01/20 04:34:25;;;;;;;9.07;5.70;;;;;;;;;;5030834;28;20809;-76
2023/01/20 04:36:52;;;;;;;10.18;6.00;;;;;;;;;;5033287;28;20075;-76
2023/01/20 04:39:18;;;;;;;9.55;5.55;;;;;;;;;;5038137;28;20162;-76
2023/01/20 04:41:44;;;;;;;9.90;5.80;;;;;;;;;;5036887;28;20036;-75
2023/01/20 04:44:10;;;;;;;6.05;5.28;;;;;;;;;;5039153;28;20113;-76
2023/01/20 04:46:36;;;;;;;8.68;5.65;;;;;;;;;;5034397;28;20017;-77
2023/01/20 04:49:02;;;;;;;12.95;6.78;;;;;;;;;;5031955;28;20029;-76
2023/01/20 04:51:28;;;;;;;11.13;6.22;;;;;;;;;;5034185;28;20457;-75
2023/01/20 04:53:57;;;;;;;8.98;6.13;;;;;;;;;;5035618;28;20078;-76
2023/01/20 04:56:24;;;;;;;9.25;5.93;;;;;;;;;;5039284;28;20025;-76
2023/01/20 04:58:50;;;;;;;8.93;5.00;;;;;;;;;;5047943;28;20359;-75
2023/01/20 05:01:16;;;;;;;9.73;5.72;;;;;;;;;;5036450;28;20032;-76
2023/01/20 05:03:42;;;;;;;10.90;6.43;;;;;;;;;;5038597;28;20063;-76
2023/01/20 05:06:10;;;;;;;8.13;5.97;;;;;;;;;;5034357;28;20378;-76
2023/01/20 05:08:36;;;;;;;8.20;5.85;;;;;;;;;;5037584;28;20072;-76
2023/01/20 05:11:02;;;;;;;9.90;6.00;;;;;;;;;;5041769;28;20036;-76
2023/01/20 05:13:28;;;;;;;11.02;7.40;;;;;;;;;;5049967;28;20466;-76
2023/01/20 05:15:55;;;;;;;11.55;7.20;;;;;;;;;;5042794;28;20056;-75
2023/01/20 05:18:21;;;;;;;9.48;6.10;;;;;;;;;;5036482;28;20036;-76
2023/01/20 05:20:48;;;;;;;12.30;7.03;;;;;;;;;;5037925;28;20048;-76
2023/01/20 05:23:14;;;;;;;10.20;7.18;;;;;;;;;;5045647;28;20108;-76
2023/01/20 05:25:40;;;;;;;14.32;7.28;;;;;;;;;;5031872;28;20527;-76
2023/01/20 05:28:06;;;;;;;11.07;6.72;;;;;;;;;;5036118;28;20018;-76
2023/01/20 05:30:32;;;;;;;10.50;6.72;;;;;;;;;;5029480;28;20060;-76
2023/01/20 05:32:59;;;;;;;12.68;7.63;;;;;;;;;;5042396;28;20017;-76
2023/01/20 05:35:25;;;;;;;12.95;8.25;;;;;;;;;;5037181;28;20053;-76
2023/01/20 05:37:54;;;;;;;11.32;7.68;;;;;;;;;;5042087;28;20040;-76
2023/01/20 05:40:21;;;;;;;12.82;7.25;;;;;;;;;;5039903;28;20243;-76
2023/01/20 05:42:47;;;;;;;17.40;8.77;;;;;;;;;;5031602;28;20048;-76
2023/01/20 05:45:13;;;;;;;14.52;7.78;;;;;;;;;;5048413;28;20017;-76
2023/01/20 05:47:39;;;;;;;15.20;8.60;;;;;;;;;;5039563;28;20025;-76
2023/01/20 05:50:05;;;;;;;12.40;7.03;;;;;;;;;;5034009;28;20028;-76
2023/01/20 05:52:31;;;;;;;15.55;9.02;;;;;;;;;;5074811;28;20029;-76
2023/01/20 05:54:58;;;;;;;13.20;8.60;;;;;;;;;;5038139;28;20397;-76
2023/01/20 05:57:24;;;;;;;12.45;7.95;;;;;;;;;;5047310;28;20027;-75
2023/01/20 05:59:51;;;;;;;10.75;7.40;;;;;;;;;;5028097;28;20546;-76
2023/01/20 06:02:18;;;;;;;14.40;8.10;;;;;;;;;;5030377;28;20115;-76
2023/01/20 06:04:47;;;;;;;12.18;7.93;;;;;;;;;;5027837;28;20033;-76
2023/01/20 06:07:14;;;;;;;15.60;7.82;;;;;;;;;;5031049;28;20043;-76
2023/01/20 06:09:40;;;;;;;10.73;7.57;;;;;;;;;;5032985;28;20059;-76
2023/01/20 06:12:07;;;;;;;15.13;7.68;;;;;;;;;;5038474;28;20087;-76
2023/01/20 06:14:33;;;;;;;13.23;8.32;;;;;;;;;;5039418;28;20517;-76
2023/01/20 06:16:59;;;;;;;13.57;7.85;;;;;;;;;;5036845;28;20025;-76
2023/01/20 06:19:25;;;;;;;13.18;8.13;;;;;;;;;;5027593;28;20119;-76
2023/01/20 06:21:52;;;;;;;10.85;7.28;;;;;;;;;;5033925;28;20121;-76
2023/01/20 06:24:33;;;;;;;14.98;7.18;;;;;;;;;;5008535;28;20048;-76
2023/01/20 06:26:59;;;;;;;14.57;7.75;;;;;;;;;;5031537;28;20466;-76
2023/01/20 06:29:25;;;;;;;9.75;7.05;;;;;;;;;;5038492;28;20624;-76
2023/01/20 06:31:51;;;;;;;14.07;8.10;;;;;;;;;;5034716;28;20033;-76
2023/01/20 06:34:17;;;;;;;13.13;7.85;;;;;;;;;;5036099;28;20044;-76
2023/01/20 06:36:43;;;;;;;10.15;6.88;;;;;;;;;;5042094;28;20033;-76
2023/01/20 06:39:09;;;;;;;11.98;7.15;;;;;;;;;;5039370;28;20029;-76
2023/01/20 06:41:36;;;;;;;8.40;6.63;;;;;;;;;;5037529;28;20095;-76
2023/01/20 06:44:02;;;;;;;11.82;7.68;;;;;;;;;;5036167;28;20033;-75
2023/01/20 06:46:28;;;;;;;13.70;8.52;;;;;;;;;;5039033;28;20033;-76
2023/01/20 06:48:59;;;;;;;15.45;9.57;;;;;;;;;;5044122;28;20074;-76
2023/01/20 06:51:26;;;;;;;24.30;13.38;;;;;;;;;;5036932;28;20044;-76
2023/01/20 06:53:52;;;;;;;12.52;8.15;;;;;;;;;;5028678;28;20364;-76
2023/01/20 06:56:18;;;;;;;12.02;8.45;;;;;;;;;;5041090;28;20064;-76
2023/01/20 06:58:45;;;;;;;12.63;8.07;;;;;;;;;;5033486;28;20087;-76
2023/01/20 07:01:13;;;;;;;11.70;7.53;;;;;;;;;;5034353;28;20481;-76
2023/01/20 07:03:41;;;;;;;16.05;9.02;;;;;;;;;;5033388;28;20066;-76
2023/01/20 07:06:14;;;;;;;12.00;7.68;;;;;;;;;;5028483;28;20021;-76
2023/01/20 07:08:42;;;;;;;14.38;9.10;;;;;;;;;;5035658;28;20029;-76
2023/01/20 07:11:08;;;;;;;12.68;7.93;;;;;;;;;;5033466;28;20484;-76
2023/01/20 07:13:34;;;;;;;12.88;7.75;;;;;;;;;;5028464;28;20061;-76
2023/01/20 07:16:00;;;;;;;12.50;8.77;;;;;;;;;;5040403;28;20028;-73
2023/01/20 07:18:26;;;;;;;16.73;9.38;;;;;;;;;;5039495;28;20044;-75
2023/01/20 07:20:53;;;;;;;11.80;8.32;;;;;;;;;;5038727;28;20053;-75
2023/01/20 07:23:19;;;;;;;12.25;8.07;;;;;;;;;;5037665;28;20036;-75
2023/01/20 07:25:45;;;;;;;13.43;7.93;;;;;;;;;;5033782;28;20477;-76
2023/01/20 07:28:11;;;;;;;13.45;7.65;;;;;;;;;;5033807;28;20037;-75
2023/01/20 07:30:37;;;;;;;13.80;8.10;;;;;;;;;;5044873;28;20032;-75
2023/01/20 07:33:04;;;;;;;15.43;8.63;;;;;;;;;;5037643;28;20032;-76
2023/01/20 07:35:30;;;;;;;26.65;10.30;;;;;;;;;;5038234;28;20113;-75
2023/01/20 07:37:57;;;;;;;21.88;9.85;;;;;;;;;;5037893;28;20178;-75
2023/01/20 07:40:23;;;;;;;30.77;12.45;;;;;;;;;;5044856;28;20048;-76
2023/01/20 07:42:50;;;;;;;28.75;11.20;;;;;;;;;;5048861;28;20025;-75
2023/01/20 07:45:17;;;;;;;29.80;12.90;;;;;;;;;;5039389;28;20029;-75
2023/01/20 07:47:43;;;;;;;20.48;10.32;;;;;;;;;;5039916;28;20136;-76
2023/01/20 07:50:09;;;;;;;25.33;10.10;;;;;;;;;;5041840;28;20489;-75
2023/01/20 07:52:35;;;;;;;18.13;9.27;;;;;;;;;;5039994;28;20025;-75
2023/01/20 07:55:02;;;;;;;16.75;8.88;;;;;;;;;;5043451;28;20109;-76
2023/01/20 07:57:32;;;;;;;18.85;9.52;;;;;;;;;;5041520;28;20029;-76
2023/01/20 07:59:58;;;;;;;14.75;8.88;;;;;;;;;;5040378;28;20118;-76
2023/01/20 08:02:24;;;;;;;14.10;8.55;;;;;;;;;;5041650;28;20022;-75
2023/01/20 08:04:50;;;;;;;17.65;7.43;;;;;;;;;;5043438;28;20032;-76
2023/01/20 08:07:16;;;;;;;9.63;6.55;;;;;;;;;;5038987;28;20029;-75
2023/01/20 08:09:42;;;;;;;12.73;7.45;;;;;;;;;;5043365;28;20024;-76
2023/01/20 08:12:08;;;;;;;10.82;7.47;;;;;;;;;;5040525;28;20040;-76
2023/01/20 08:14:35;;;;;;;11.52;7.45;;;;;;;;;;5043263;28;20036;-76
2023/01/20 08:17:01;;;;;;;12.02;7.03;;;;;;;;;;5039740;28;20914;-76
2023/01/20 08:19:30;;;;;;;12.40;8.07;;;;;;;;;;5041100;28;20390;-76
2023/01/20 08:21:56;;;;;;;13.60;8.02;;;;;;;;;;5040086;28;20048;-77
2023/01/20 08:24:22;;;;;;;14.00;7.22;;;;;;;;;;5043236;28;20024;-77
2023/01/20 08:26:52;;;;;;;11.45;7.80;;;;;;;;;;5038386;28;20140;-76
2023/01/20 08:29:18;;;;;;;15.60;9.18;;;;;;;;;;5042771;28;20043;-76
2023/01/20 08:31:44;;;;;;;24.75;13.60;;;;;;;;;;5038631;28;20029;-76
2023/01/20 08:34:11;;;;;;;26.63;16.50;;;;;;;;;;5038997;28;20107;-77
2023/01/20 08:36:38;;;;;;;18.95;11.50;;;;;;;;;;5039545;28;20059;-77
2023/01/20 08:39:06;;;;;;;19.90;12.70;;;;;;;;;;5036735;28;20055;-77
2023/01/20 08:41:33;;;;;;;15.50;10.27;;;;;;;;;;5038628;28;20033;-77
2023/01/20 08:44:00;;;;;;;12.95;8.70;;;;;;;;;;5042570;28;20044;-77
2023/01/20 08:46:27;;;;;;;15.45;9.20;;;;;;;;;;5042194;28;20036;-77
2023/01/20 08:48:53;;;;;;;11.23;7.82;;;;;;;;;;5043295;28;20029;-77
2023/01/20 08:51:21;;;;;;;13.35;8.40;;;;;;;;;;5038014;28;20017;-76
2023/01/20 08:53:48;;;;;;;13.38;9.05;;;;;;;;;;5041743;28;20037;-76
2023/01/20 08:56:14;;;;;;;19.23;12.25;;;;;;;;;;5037975;28;20024;-76
2023/01/20 08:58:40;;;;;;;19.67;11.88;;;;;;;;;;5039884;28;20059;-76
2023/01/20 09:01:14;;;;;;;21.05;12.80;;;;;;;;;;5040576;28;20052;-76
2023/01/20 09:03:41;;;;;;;17.85;11.02;;;;;;;;;;5040309;28;20030;-76
2023/01/20 09:06:08;;;;;;;15.25;10.50;;;;;;;;;;5040107;28;20049;-76
2023/01/20 09:08:35;;;;;;;10.23;8.32;;;;;;;;;;5039579;28;20029;-76
2023/01/20 09:11:08;;;;;;;11.32;8.07;;;;;;;;;;5033541;28;20479;-76
2023/01/20 09:13:35;;;;;;;12.82;8.82;;;;;;;;;;5042989;28;20490;-76
2023/01/20 09:16:02;;;;;;;15.57;9.73;;;;;;;;;;5040747;28;20090;-76
2023/01/20 09:18:29;;;;;;;19.23;11.02;;;;;;;;;;5039033;28;20029;-76
2023/01/20 09:20:57;;;;;;;19.83;11.32;;;;;;;;;;5040568;28;20045;-75
2023/01/20 09:23:23;;;;;;;16.13;11.10;;;;;;;;;;5037304;28;20665;-76
2023/01/20 09:25:49;;;;;;;18.83;10.23;;;;;;;;;;5036781;28;20082;-78
2023/01/20 09:28:16;;;;;;;17.95;10.32;;;;;;;;;;5037070;28;20029;-76
2023/01/20 09:30:42;;;;;;;14.13;9.95;;;;;;;;;;5040783;28;20025;-76
2023/01/20 09:33:12;;;;;;;14.50;10.93;;;;;;;;;;5039519;28;20034;-76
2023/01/20 09:35:39;;;;;;;16.70;10.98;;;;;;;;;;5039137;28;20028;-76
2023/01/20 09:43:56;;;;;;;14.85;9.20;;;;;;;;;;5039479;28;20106;-76
2023/01/20 09:46:22;;;;;;;13.15;9.90;;;;;;;;;;5038868;28;20032;-76
2023/01/20 09:54:26;;;;;;;16.70;9.48;;;;;;;;;;5035887;28;20111;-76
2023/01/20 09:56:53;;;;;;;14.60;9.45;;;;;;;;;;5039799;28;20033;-76
2023/01/20 09:59:37;;;;;;;14.40;8.88;;;;;;;;;;5040650;28;20033;-76
2023/01/20 10:02:07;;;;;;;12.15;8.57;;;;;;;;;;5037051;28;20040;-76
2023/01/20 10:04:43;;;;;;;12.07;8.32;;;;;;;;;;5040184;28;20043;-77
2023/01/20 10:07:09;;;;;;;13.18;8.77;;;;;;;;;;5037792;28;20100;-76
2023/01/20 10:09:35;;;;;;;57.85;24.95;;;;;;;;;;5035330;28;20106;-76
2023/01/20 10:12:08;;;;;;;187.13;66.65;;;;;;;;;;5036019;28;20033;-76
2023/01/20 10:14:38;;;;;;;248.82;91.75;;;;;;;;;;5038422;28;20048;-77
2023/01/20 10:17:04;;;;;;;191.32;75.55;;;;;;;;;;5038706;28;20064;-76
2023/01/20 10:19:41;;;;;;;197.93;81.63;;;;;;;;;;5036847;28;20037;-76
2023/01/20 10:22:11;;;;;;;143.00;59.10;;;;;;;;;;5054175;28;20033;-74
2023/01/20 10:24:51;;;;;;;114.18;47.38;;;;;;;;;;5036223;28;20485;-77
2023/01/20 10:27:18;;;;;;;52.58;27.48;;;;;;;;;;5040571;28;20025;-76
2023/01/20 10:29:47;;;;;;;40.35;22.13;;;;;;;;;;5036609;28;20040;-76
2023/01/20 10:32:32;;;;;;;44.10;21.65;;;;;;;;;;5033989;28;20657;-76
2023/01/20 10:35:01;;;;;;;34.30;15.75;;;;;;;;;;5037562;28;20040;-76
2023/01/20 10:37:29;;;;;;;35.72;16.10;;;;;;;;;;5040561;28;20182;-76
2023/01/20 10:40:03;;;;;;;28.30;12.68;;;;;;;;;;5038972;28;20147;-76
2023/01/20 10:42:29;;;;;;;24.00;12.70;;;;;;;;;;5034899;28;20037;-76
2023/01/20 10:44:55;;;;;;;20.13;12.63;;;;;;;;;;5033739;28;20154;-77
2023/01/20 10:47:24;;;;;;;22.85;14.23;;;;;;;;;;5035259;28;20077;-76
2023/01/20 10:49:55;;;;;;;14.60;10.52;;;;;;;;;;5038086;28;20032;-77
2023/01/20 10:52:24;;;;;;;17.45;11.45;;;;;;;;;;5039857;28;20031;-76
2023/01/20 10:54:50;;;;;;;18.83;11.38;;;;;;;;;;5042099;28;20033;-76
2023/01/20 10:57:16;;;;;;;18.98;10.75;;;;;;;;;;5040193;28;20032;-77
2023/01/20 10:59:47;;;;;;;20.75;10.40;;;;;;;;;;5055441;28;20032;-76
2023/01/20 11:02:19;;;;;;;18.30;9.90;;;;;;;;;;5040812;28;20029;-76
2023/01/20 11:04:48;;;;;;;19.65;10.07;;;;;;;;;;5039708;28;20125;-76
2023/01/20 11:07:16;;;;;;;43.05;24.90;;;;;;;;;;5041930;28;20051;-76
2023/01/20 11:09:42;;;;;;;18.58;10.57;;;;;;;;;;5039875;28;20029;-76
2023/01/20 11:12:16;;;;;;;14.57;10.38;;;;;;;;;;5042530;28;20033;-76
2023/01/20 11:14:43;;;;;;;31.13;11.88;;;;;;;;;;5039534;28;20032;-76
2023/01/20 11:17:13;;;;;;;18.73;9.18;;;;;;;;;;5040451;28;20370;-75
2023/01/20 11:19:55;;;;;;;14.75;7.88;;;;;;;;;;5039936;28;20052;-76
2023/01/20 11:22:42;;;;;;;14.60;8.05;;;;;;;;;;5040058;28;20037;-76
2023/01/20 11:25:20;;;;;;;11.38;8.73;;;;;;;;;;5041640;28;20048;-76
2023/01/20 11:27:47;;;;;;;27.98;11.52;;;;;;;;;;5042304;28;20029;-76
2023/01/20 11:30:22;;;;;;;56.30;19.55;;;;;;;;;;5041024;28;20017;-76
2023/01/20 11:33:06;;;;;;;22.73;10.73;;;;;;;;;;5040806;28;20021;-76
2023/01/20 11:35:33;;;;;;;25.20;12.63;;;;;;;;;;5041842;28;20116;-76
2023/01/20 11:38:00;;;;;;;26.83;10.95;;;;;;;;;;5039377;28;20028;-76
2023/01/20 11:40:28;;;;;;;16.75;8.70;;;;;;;;;;5037387;28;20104;-76
2023/01/20 11:42:54;;;;;;;15.13;7.57;;;;;;;;;;5033433;28;20366;-76
2023/01/20 11:45:28;;;;;;;17.05;7.97;;;;;;;;;;5041690;28;20551;-76
2023/01/20 11:48:27;;;;;;;16.92;8.80;;;;;;;;;;5049113;28;20029;-76
2023/01/20 11:50:55;;;;;;;11.82;7.65;;;;;;;;;;5041539;28;20046;-76
2023/01/20 11:53:25;;;;;;;17.85;9.05;;;;;;;;;;5041747;28;20078;-76
2023/01/20 11:56:01;;;;;;;14.65;8.02;;;;;;;;;;5043677;28;20032;-76
2023/01/20 11:58:29;;;;;;;9.52;6.47;;;;;;;;;;5043960;28;20863;-76
2023/01/20 12:01:07;;;;;;;12.30;6.30;;;;;;;;;;5042058;28;20017;-77
2023/01/20 12:03:52;;;;;;;8.52;6.13;;;;;;;;;;5038824;28;20382;-77
2023/01/20 12:06:23;;;;;;;11.48;7.20;;;;;;;;;;5042195;28;20020;-77
2023/01/20 12:08:49;;;;;;;11.35;6.68;;;;;;;;;;5042729;28;20108;-77
2023/01/20 12:11:24;;;;;;;10.05;6.30;;;;;;;;;;5042479;28;20025;-76
2023/01/20 12:14:21;;;;;;;14.48;7.75;;;;;;;;;;5041508;28;20759;-75
2023/01/20 12:17:00;;;;;;;12.43;7.15;;;;;;;;;;5043291;28;20078;-73
2023/01/20 12:19:35;;;;;;;11.13;7.10;;;;;;;;;;5041343;28;20124;-74
2023/01/20 12:22:05;;;;;;;12.55;7.20;;;;;;;;;;5042412;28;20033;-76
2023/01/20 12:25:06;;;;;;;10.63;6.55;;;;;;;;;;5043332;28;20029;-75
2023/01/20 12:27:33;;;;;;;11.38;6.03;;;;;;;;;;5039806;28;20029;-75
2023/01/20 12:30:01;;;;;;;11.95;6.57;;;;;;;;;;5041982;28;20102;-75
2023/01/20 12:32:28;;;;;;;10.18;7.88;;;;;;;;;;5041062;28;20021;-75
2023/01/20 12:34:55;;;;;;;15.25;7.43;;;;;;;;;;5041426;28;20021;-75
2023/01/20 12:37:41;;;;;;;9.57;6.13;;;;;;;;;;5043400;28;20120;-75
2023/01/20 12:40:07;;;;;;;10.05;6.75;;;;;;;;;;5041419;28;20063;-75
2023/01/20 12:42:45;;;;;;;15.40;8.68;;;;;;;;;;5039463;28;20090;-75
2023/01/20 12:45:28;;;;;;;15.68;9.38;;;;;;;;;;5042300;28;20032;-75
2023/01/20 12:48:13;;;;;;;19.17;13.15;;;;;;;;;;5040569;28;20056;-76
2023/01/20 12:50:54;;;;;;;18.85;9.15;;;;;;;;;;5061943;28;20025;-75
2023/01/20 12:53:37;;;;;;;35.28;22.10;;;;;;;;;;5051636;28;20104;-75
2023/01/20 12:56:21;;;;;;;15.85;10.70;;;;;;;;;;5053314;28;20028;-75
2023/01/20 12:58:49;;;;;;;16.50;10.27;;;;;;;;;;5046061;28;20025;-76
2023/01/20 13:01:15;;;;;;;12.00;8.80;;;;;;;;;;5046131;28;20048;-76
2023/01/20 13:03:57;;;;;;;10.52;8.77;;;;;;;;;;5047023;28;20087;-75
2023/01/20 13:06:26;;;;;;;12.85;8.75;;;;;;;;;;5045857;28;20026;-75
2023/01/20 13:08:57;;;;;;;12.07;7.82;;;;;;;;;;5047063;28;20762;-76
2023/01/20 13:11:41;;;;;;;15.43;8.95;;;;;;;;;;5049842;28;20028;-74
2023/01/20 13:14:17;;;;;;;19.17;14.63;;;;;;;;;;5041675;28;20033;-76
2023/01/20 13:16:53;;;;;;;13.73;7.85;;;;;;;;;;5039613;28;20380;-75
2023/01/20 13:19:28;;;;;;;12.18;7.78;;;;;;;;;;5041120;28;20102;-75
2023/01/20 13:21:54;;;;;;;11.27;8.45;;;;;;;;;;5039395;28;20048;-75
2023/01/20 13:24:28;;;;;;;11.38;7.88;;;;;;;;;;5045162;28;20035;-75
2023/01/20 13:26:56;;;;;;;9.50;7.15;;;;;;;;;;5039231;28;20070;-75
2023/01/20 13:29:40;;;;;;;10.30;7.38;;;;;;;;;;5043692;28;20132;-75
2023/01/20 13:32:25;;;;;;;10.23;6.90;;;;;;;;;;5041855;28;20021;-75
2023/01/20 13:34:51;;;;;;;;;;;;;;;;;;5039597;28;20492;-75
2023/01/20 13:37:17;;;;;;;9.07;7.20;;;;;;;;;;5038536;28;19909;-75
2023/01/20 13:39:46;;;;;;;11.07;7.63;;;;;;;;;;5041862;28;20709;-75
2023/01/20 13:42:28;;;;;;;12.88;8.02;;;;;;;;;;5038627;28;20029;-75
2023/01/20 13:45:12;;;;;;;12.60;8.68;;;;;;;;;;5041466;28;20044;-74
2023/01/20 13:47:57;;;;;;;10.23;6.82;;;;;;;;;;5040028;28;21053;-74
2023/01/20 13:50:23;;;;;;;;;;;;;;;;;;5040683;28;20510;-75
2023/01/20 13:52:49;;;;;;;11.05;7.75;;;;;;;;;;5055915;28;20663;-75
2023/01/20 13:55:36;;;;;;;17.05;9.50;;;;;;;;;;5039405;28;20029;-75
2023/01/20 13:58:02;;;;;;;12.45;7.93;;;;;;;;;;5037868;28;20045;-74
2023/01/20 14:00:28;;;;;;;11.30;7.85;;;;;;;;;;5040798;28;21269;-75
2023/01/20 14:02:54;;;;;;;9.20;6.20;;;;;;;;;;5040744;28;20508;-76
2023/01/20 14:05:21;;;;;;;9.57;6.53;;;;;;;;;;5040526;28;20112;-76
2023/01/20 14:07:47;;;;;;;10.02;6.95;;;;;;;;;;5039295;28;20024;-76
2023/01/20 14:10:14;;;;;;;8.90;6.20;;;;;;;;;;5040151;28;20040;-75
2023/01/20 14:12:40;;;;;;;9.15;6.22;;;;;;;;;;5041198;28;20025;-75
2023/01/20 14:15:06;;;;;;;16.77;9.25;;;;;;;;;;5041347;28;20029;-75
2023/01/20 14:17:33;;;;;;;9.68;7.32;;;;;;;;;;5040982;28;20021;-74
2023/01/20 14:19:59;;;;;;;18.52;12.77;;;;;;;;;;5037565;28;20049;-75
2023/01/20 14:22:26;;;;;;;18.92;13.15;;;;;;;;;;5037184;28;20044;-75
2023/01/20 14:24:56;;;;;;;10.32;7.18;;;;;;;;;;5037874;28;20033;-75
2023/01/20 14:27:25;;;;;;;9.63;6.32;;;;;;;;;;5038803;28;20457;-75
2023/01/20 14:29:52;;;;;;;6.63;4.32;;;;;;;;;;5038969;28;20052;-75
2023/01/20 14:32:31;;;;;;;5.65;3.63;;;;;;;;;;5042699;28;20048;-75
2023/01/20 14:34:57;;;;;;;4.78;3.03;;;;;;;;;;5037901;28;20028;-75
2023/01/20 14:37:24;;;;;;;5.63;3.20;;;;;;;;;;5039536;28;20044;-75
2023/01/20 14:39:50;;;;;;;5.15;3.00;;;;;;;;;;5042053;28;20141;-74
2023/01/20 14:42:20;;;;;;;5.63;3.70;;;;;;;;;;5037397;28;20033;-75
2023/01/20 14:44:47;;;;;;;10.18;5.88;;;;;;;;;;5038321;28;20033;-75
2023/01/20 14:47:13;;;;;;;9.98;6.50;;;;;;;;;;5039964;28;20022;-75
2023/01/20 14:49:42;;;;;;;17.17;8.90;;;;;;;;;;5039948;28;20040;-75
2023/01/20 14:52:10;;;;;;;17.38;11.07;;;;;;;;;;5041298;28;20036;-74